sensor_id;sensor_type;location;lat;lon;timestamp;temperature;humidity
12948;DHT22;6539;49.476;8.484;2023-02-21T00:00:55;10.60;99.90
12948;DHT22;6539;49.476;8.484;2023-02-21T00:03:39;10.60;99.90
12948;DHT22;6539;49.476;8.484;2023-02-21T00:06:23;10.40;99.90
12948;DHT22;6539;49.476;8.484;2023-02-21T00:09:10;10.70;99.90
12948;DHT22;6539;49.476;8.484;2023-02-21T00:11:54;10.70;99.90
12948;DHT22;6539;49.476;8.484;2023-02-21T00:14:39;10.80;99.90
12948;DHT22;6539;49.476;8.484;2023-02-21T00:17:23;10.50;99.90
12948;DHT22;6539;49.476;8.484;2023-02-21T00:20:10;10.50;99.90
12948;DHT22;6539;49.476;8.484;2023-02-21T00:22:54;10.40;99.90
12948;DHT22;6539;49.476;8.484;2023-02-21T00:25:38;10.30;99.90
12948;DHT22;6539;49.476;8.484;2023-02-21T00:28:22;10.50;99.90
12948;DHT22;6539;49.476;8.484;2023-02-21T00:31:07;10.50;99.90
12948;DHT22;6539;49.476;8.484;2023-02-21T00:33:51;10.80;99.90
12948;DHT22;6539;49.476;8.484;2023-02-21T00:36:35;10.70;99.90
12948;DHT22;6539;49.476;8.484;2023-02-21T00:39:19;10.60;99.90
12948;DHT22;6539;49.476;8.484;2023-02-21T00:42:04;10.80;99.90
12948;DHT22;6539;49.476;8.484;2023-02-21T00:44:48;10.70;99.90
12948;DHT22;6539;49.476;8.484;2023-02-21T00:47:34;10.80;99.90
12948;DHT22;6539;49.476;8.484;2023-02-21T00:50:21;10.80;99.90
12948;DHT22;6539;49.476;8.484;2023-02-21T00:53:05;10.90;99.90
12948;DHT22;6539;49.476;8.484;2023-02-21T00:55:52;10.60;99.90
12948;DHT22;6539;49.476;8.484;2023-02-21T00:58:36;10.80;99.90
12948;DHT22;6539;49.476;8.484;2023-02-21T01:01:23;10.60;99.90
12948;DHT22;6539;49.476;8.484;2023-02-21T01:04:07;10.20;99.90
12948;DHT22;6539;49.476;8.484;2023-02-21T01:06:53;10.40;99.90
12948;DHT22;6539;49.476;8.484;2023-02-21T01:09:38;10.50;99.90
12948;DHT22;6539;49.476;8.484;2023-02-21T01:12:27;10.40;99.90
12948;DHT22;6539;49.476;8.484;2023-02-21T01:15:15;10.40;99.90
12948;DHT22;6539;49.476;8.484;2023-02-21T01:17:59;10.50;99.90
12948;DHT22;6539;49.476;8.484;2023-02-21T01:20:46;10.30;99.90
12948;DHT22;6539;49.476;8.484;2023-02-21T01:23:30;10.30;99.90
12948;DHT22;6539;49.476;8.484;2023-02-21T01:26:15;10.10;99.90
12948;DHT22;6539;49.476;8.484;2023-02-21T01:29:00;10.20;99.90
12948;DHT22;6539;49.476;8.484;2023-02-21T01:31:44;10.40;99.90
12948;DHT22;6539;49.476;8.484;2023-02-21T01:34:30;10.20;99.90
12948;DHT22;6539;49.476;8.484;2023-02-21T01:37:14;10.20;99.90
12948;DHT22;6539;49.476;8.484;2023-02-21T01:40:02;10.50;99.90
12948;DHT22;6539;49.476;8.484;2023-02-21T01:42:49;10.10;99.90
12948;DHT22;6539;49.476;8.484;2023-02-21T01:45:39;10.10;99.90
12948;DHT22;6539;49.476;8.484;2023-02-21T01:48:29;10.10;99.90
12948;DHT22;6539;49.476;8.484;2023-02-21T01:51:19;9.80;99.90
12948;DHT22;6539;49.476;8.484;2023-02-21T01:54:09;10.00;99.90
12948;DHT22;6539;49.476;8.484;2023-02-21T01:56:55;9.90;99.90
12948;DHT22;6539;49.476;8.484;2023-02-21T01:59:44;9.70;99.90
12948;DHT22;6539;49.476;8.484;2023-02-21T02:03:10;9.90;99.90
12948;DHT22;6539;49.476;8.484;2023-02-21T02:05:56;9.60;99.90
12948;DHT22;6539;49.476;8.484;2023-02-21T02:08:47;9.70;99.90
12948;DHT22;6539;49.476;8.484;2023-02-21T02:27:35;9.60;99.90
12948;DHT22;6539;49.476;8.484;2023-02-21T02:35:49;9.50;99.90
12948;DHT22;6539;49.476;8.484;2023-02-21T02:38:39;9.50;99.90
12948;DHT22;6539;49.476;8.484;2023-02-21T02:41:29;9.50;99.90
12948;DHT22;6539;49.476;8.484;2023-02-21T02:45:00;9.60;99.90
12948;DHT22;6539;49.476;8.484;2023-02-21T02:47:37;9.60;99.90
12948;DHT22;6539;49.476;8.484;2023-02-21T02:50:11;9.50;99.90
12948;DHT22;6539;49.476;8.484;2023-02-21T02:52:49;9.40;99.90
12948;DHT22;6539;49.476;8.484;2023-02-21T02:55:45;9.40;99.90
12948;DHT22;6539;49.476;8.484;2023-02-21T02:58:16;9.60;99.90
12948;DHT22;6539;49.476;8.484;2023-02-21T03:00:54;9.50;99.90
12948;DHT22;6539;49.476;8.484;2023-02-21T03:12:38;9.40;99.90
12948;DHT22;6539;49.476;8.484;2023-02-21T03:15:16;9.40;99.90
12948;DHT22;6539;49.476;8.484;2023-02-21T03:17:55;9.30;99.90
12948;DHT22;6539;49.476;8.484;2023-02-21T03:20:28;9.30;99.90
12948;DHT22;6539;49.476;8.484;2023-02-21T03:23:01;9.30;99.90
12948;DHT22;6539;49.476;8.484;2023-02-21T03:25:32;9.30;99.90
12948;DHT22;6539;49.476;8.484;2023-02-21T03:28:00;9.30;99.90
12948;DHT22;6539;49.476;8.484;2023-02-21T03:30:28;9.30;99.90
12948;DHT22;6539;49.476;8.484;2023-02-21T03:32:54;9.40;99.90
12948;DHT22;6539;49.476;8.484;2023-02-21T03:35:24;9.30;99.90
12948;DHT22;6539;49.476;8.484;2023-02-21T03:37:54;9.30;99.90
12948;DHT22;6539;49.476;8.484;2023-02-21T03:40:30;9.20;99.90
12948;DHT22;6539;49.476;8.484;2023-02-21T03:43:00;9.30;99.90
12948;DHT22;6539;49.476;8.484;2023-02-21T03:45:27;9.20;99.90
12948;DHT22;6539;49.476;8.484;2023-02-21T03:47:53;9.20;99.90
12948;DHT22;6539;49.476;8.484;2023-02-21T03:50:21;9.20;99.90
12948;DHT22;6539;49.476;8.484;2023-02-21T03:52:46;9.10;99.90
12948;DHT22;6539;49.476;8.484;2023-02-21T03:55:12;9.00;99.90
12948;DHT22;6539;49.476;8.484;2023-02-21T03:57:40;9.00;99.90
12948;DHT22;6539;49.476;8.484;2023-02-21T04:00:06;9.00;99.90
12948;DHT22;6539;49.476;8.484;2023-02-21T04:02:32;9.10;99.90
12948;DHT22;6539;49.476;8.484;2023-02-21T04:05:01;9.10;99.90
12948;DHT22;6539;49.476;8.484;2023-02-21T04:07:29;9.20;99.90
12948;DHT22;6539;49.476;8.484;2023-02-21T04:09:57;9.30;99.90
12948;DHT22;6539;49.476;8.484;2023-02-21T04:12:23;9.20;99.90
12948;DHT22;6539;49.476;8.484;2023-02-21T04:14:52;9.20;99.90
12948;DHT22;6539;49.476;8.484;2023-02-21T04:17:21;9.40;99.90
12948;DHT22;6539;49.476;8.484;2023-02-21T04:19:49;9.30;99.90
12948;DHT22;6539;49.476;8.484;2023-02-21T04:22:21;9.40;99.90
12948;DHT22;6539;49.476;8.484;2023-02-21T04:24:46;9.30;99.90
12948;DHT22;6539;49.476;8.484;2023-02-21T04:27:13;9.40;99.90
12948;DHT22;6539;49.476;8.484;2023-02-21T04:29:44;9.50;99.90
12948;DHT22;6539;49.476;8.484;2023-02-21T04:32:12;9.40;99.90
12948;DHT22;6539;49.476;8.484;2023-02-21T04:34:38;9.40;99.90
12948;DHT22;6539;49.476;8.484;2023-02-21T04:37:04;9.40;99.90
12948;DHT22;6539;49.476;8.484;2023-02-21T04:39:29;9.40;99.90
12948;DHT22;6539;49.476;8.484;2023-02-21T04:41:55;9.30;99.90
12948;DHT22;6539;49.476;8.484;2023-02-21T04:44:21;9.30;99.90
12948;DHT22;6539;49.476;8.484;2023-02-21T04:46:49;9.10;99.90
12948;DHT22;6539;49.476;8.484;2023-02-21T04:49:17;9.10;99.90
12948;DHT22;6539;49.476;8.484;2023-02-21T04:51:48;9.10;99.90
12948;DHT22;6539;49.476;8.484;2023-02-21T04:54:16;9.10;99.90
12948;DHT22;6539;49.476;8.484;2023-02-21T04:56:41;9.00;99.90
12948;DHT22;6539;49.476;8.484;2023-02-21T04:59:10;8.90;99.90
12948;DHT22;6539;49.476;8.484;2023-02-21T05:01:35;8.60;99.90
12948;DHT22;6539;49.476;8.484;2023-02-21T05:04:01;8.70;99.90
12948;DHT22;6539;49.476;8.484;2023-02-21T05:06:30;8.60;99.90
12948;DHT22;6539;49.476;8.484;2023-02-21T05:08:57;8.60;99.90
12948;DHT22;6539;49.476;8.484;2023-02-21T05:11:24;8.60;99.90
12948;DHT22;6539;49.476;8.484;2023-02-21T05:13:52;8.70;99.90
12948;DHT22;6539;49.476;8.484;2023-02-21T05:16:19;8.70;99.90
12948;DHT22;6539;49.476;8.484;2023-02-21T05:18:48;8.60;99.90
12948;DHT22;6539;49.476;8.484;2023-02-21T05:21:14;8.60;99.90
12948;DHT22;6539;49.476;8.484;2023-02-21T05:23:45;8.60;99.90
12948;DHT22;6539;49.476;8.484;2023-02-21T05:26:42;8.60;99.90
12948;DHT22;6539;49.476;8.484;2023-02-21T05:29:08;8.60;99.90
12948;DHT22;6539;49.476;8.484;2023-02-21T05:31:34;8.60;99.90
12948;DHT22;6539;49.476;8.484;2023-02-21T05:34:02;8.50;99.90
12948;DHT22;6539;49.476;8.484;2023-02-21T05:36:28;8.60;99.90
12948;DHT22;6539;49.476;8.484;2023-02-21T05:38:56;8.60;99.90
12948;DHT22;6539;49.476;8.484;2023-02-21T05:41:24;8.50;99.90
12948;DHT22;6539;49.476;8.484;2023-02-21T05:43:50;8.50;99.90
12948;DHT22;6539;49.476;8.484;2023-02-21T05:46:24;8.30;99.90
12948;DHT22;6539;49.476;8.484;2023-02-21T05:48:52;8.30;99.90
12948;DHT22;6539;49.476;8.484;2023-02-21T05:51:22;8.40;99.90
12948;DHT22;6539;49.476;8.484;2023-02-21T05:53:51;8.40;99.90
12948;DHT22;6539;49.476;8.484;2023-02-21T05:56:17;8.40;99.90
12948;DHT22;6539;49.476;8.484;2023-02-21T05:58:44;8.20;99.90
12948;DHT22;6539;49.476;8.484;2023-02-21T06:01:12;8.40;99.90
12948;DHT22;6539;49.476;8.484;2023-02-21T06:03:38;8.20;99.90
12948;DHT22;6539;49.476;8.484;2023-02-21T06:06:07;8.20;99.90
12948;DHT22;6539;49.476;8.484;2023-02-21T06:08:45;8.20;99.90
12948;DHT22;6539;49.476;8.484;2023-02-21T06:11:20;8.10;99.90
12948;DHT22;6539;49.476;8.484;2023-02-21T06:13:55;8.20;99.90
12948;DHT22;6539;49.476;8.484;2023-02-21T06:16:25;8.30;99.90
12948;DHT22;6539;49.476;8.484;2023-02-21T06:18:55;8.30;99.90
12948;DHT22;6539;49.476;8.484;2023-02-21T06:21:22;8.10;99.90
12948;DHT22;6539;49.476;8.484;2023-02-21T06:23:48;8.30;99.90
12948;DHT22;6539;49.476;8.484;2023-02-21T06:26:17;8.00;99.90
12948;DHT22;6539;49.476;8.484;2023-02-21T06:28:45;8.00;99.90
12948;DHT22;6539;49.476;8.484;2023-02-21T06:31:11;8.10;99.90
12948;DHT22;6539;49.476;8.484;2023-02-21T06:33:37;8.10;99.90
12948;DHT22;6539;49.476;8.484;2023-02-21T06:36:09;8.00;99.90
12948;DHT22;6539;49.476;8.484;2023-02-21T06:38:39;8.00;99.90
12948;DHT22;6539;49.476;8.484;2023-02-21T06:41:06;8.10;99.90
12948;DHT22;6539;49.476;8.484;2023-02-21T06:43:33;8.30;99.90
12948;DHT22;6539;49.476;8.484;2023-02-21T06:46:01;8.00;99.90
12948;DHT22;6539;49.476;8.484;2023-02-21T06:48:30;8.10;99.90
12948;DHT22;6539;49.476;8.484;2023-02-21T06:50:57;8.20;99.90
12948;DHT22;6539;49.476;8.484;2023-02-21T06:53:25;8.20;99.90
12948;DHT22;6539;49.476;8.484;2023-02-21T06:55:51;8.10;99.90
12948;DHT22;6539;49.476;8.484;2023-02-21T06:58:19;8.00;99.90
12948;DHT22;6539;49.476;8.484;2023-02-21T07:00:47;8.00;99.90
12948;DHT22;6539;49.476;8.484;2023-02-21T07:03:13;8.10;99.90
12948;DHT22;6539;49.476;8.484;2023-02-21T07:05:43;8.10;99.90
12948;DHT22;6539;49.476;8.484;2023-02-21T07:08:12;8.20;99.90
12948;DHT22;6539;49.476;8.484;2023-02-21T07:10:42;8.20;99.90
12948;DHT22;6539;49.476;8.484;2023-02-21T07:13:08;8.20;99.90
12948;DHT22;6539;49.476;8.484;2023-02-21T07:15:38;8.20;99.90
12948;DHT22;6539;49.476;8.484;2023-02-21T07:18:04;8.30;99.90
12948;DHT22;6539;49.476;8.484;2023-02-21T07:20:30;8.30;99.90
12948;DHT22;6539;49.476;8.484;2023-02-21T07:22:59;8.30;99.90
12948;DHT22;6539;49.476;8.484;2023-02-21T07:27:54;8.50;99.90
12948;DHT22;6539;49.476;8.484;2023-02-21T07:30:22;8.30;99.90
12948;DHT22;6539;49.476;8.484;2023-02-21T07:32:48;8.10;99.90
12948;DHT22;6539;49.476;8.484;2023-02-21T07:35:14;8.40;99.90
12948;DHT22;6539;49.476;8.484;2023-02-21T07:37:42;8.70;99.90
12948;DHT22;6539;49.476;8.484;2023-02-21T07:40:08;8.90;99.90
12948;DHT22;6539;49.476;8.484;2023-02-21T07:42:40;8.90;99.90
12948;DHT22;6539;49.476;8.484;2023-02-21T07:45:10;8.50;99.90
12948;DHT22;6539;49.476;8.484;2023-02-21T07:47:41;8.60;99.90
12948;DHT22;6539;49.476;8.484;2023-02-21T07:50:09;9.00;99.90
12948;DHT22;6539;49.476;8.484;2023-02-21T07:52:34;8.60;99.90
12948;DHT22;6539;49.476;8.484;2023-02-21T07:55:00;9.10;99.90
12948;DHT22;6539;49.476;8.484;2023-02-21T07:57:26;9.00;99.90
12948;DHT22;6539;49.476;8.484;2023-02-21T07:59:52;9.00;99.90
12948;DHT22;6539;49.476;8.484;2023-02-21T08:02:20;9.50;99.90
12948;DHT22;6539;49.476;8.484;2023-02-21T08:04:51;9.60;99.90
12948;DHT22;6539;49.476;8.484;2023-02-21T08:07:19;10.30;99.90
12948;DHT22;6539;49.476;8.484;2023-02-21T08:09:49;11.00;99.90
12948;DHT22;6539;49.476;8.484;2023-02-21T08:12:18;11.60;99.90
12948;DHT22;6539;49.476;8.484;2023-02-21T08:14:46;12.30;99.90
12948;DHT22;6539;49.476;8.484;2023-02-21T08:17:12;13.10;99.90
12948;DHT22;6539;49.476;8.484;2023-02-21T08:19:38;13.40;99.90
12948;DHT22;6539;49.476;8.484;2023-02-21T08:22:06;13.70;99.90
12948;DHT22;6539;49.476;8.484;2023-02-21T08:24:32;14.10;99.90
12948;DHT22;6539;49.476;8.484;2023-02-21T08:26:58;14.30;99.90
12948;DHT22;6539;49.476;8.484;2023-02-21T08:29:24;14.70;99.90
12948;DHT22;6539;49.476;8.484;2023-02-21T08:31:53;15.30;99.90
12948;DHT22;6539;49.476;8.484;2023-02-21T08:34:21;15.40;99.90
12948;DHT22;6539;49.476;8.484;2023-02-21T08:36:51;15.50;99.90
12948;DHT22;6539;49.476;8.484;2023-02-21T08:39:17;15.50;99.90
12948;DHT22;6539;49.476;8.484;2023-02-21T08:41:46;15.60;99.90
12948;DHT22;6539;49.476;8.484;2023-02-21T08:44:14;15.80;99.90
12948;DHT22;6539;49.476;8.484;2023-02-21T08:46:41;15.60;99.90
12948;DHT22;6539;49.476;8.484;2023-02-21T08:49:08;15.90;99.90
12948;DHT22;6539;49.476;8.484;2023-02-21T08:51:39;16.10;99.90
12948;DHT22;6539;49.476;8.484;2023-02-21T08:54:05;16.50;99.90
12948;DHT22;6539;49.476;8.484;2023-02-21T08:56:35;16.70;99.90
12948;DHT22;6539;49.476;8.484;2023-02-21T08:59:02;16.90;99.90
12948;DHT22;6539;49.476;8.484;2023-02-21T09:01:34;17.10;99.90
12948;DHT22;6539;49.476;8.484;2023-02-21T09:04:02;17.30;99.90
12948;DHT22;6539;49.476;8.484;2023-02-21T09:06:29;17.70;99.90
12948;DHT22;6539;49.476;8.484;2023-02-21T09:09:01;17.60;99.90
12948;DHT22;6539;49.476;8.484;2023-02-21T09:11:29;18.00;99.90
12948;DHT22;6539;49.476;8.484;2023-02-21T09:13:55;18.00;99.90
12948;DHT22;6539;49.476;8.484;2023-02-21T09:16:21;18.00;99.90
12948;DHT22;6539;49.476;8.484;2023-02-21T09:18:57;18.40;99.90
12948;DHT22;6539;49.476;8.484;2023-02-21T09:21:26;18.30;99.90
12948;DHT22;6539;49.476;8.484;2023-02-21T09:23:56;18.50;99.90
12948;DHT22;6539;49.476;8.484;2023-02-21T09:26:24;18.50;99.90
12948;DHT22;6539;49.476;8.484;2023-02-21T09:28:56;18.50;99.90
12948;DHT22;6539;49.476;8.484;2023-02-21T09:31:23;18.80;99.90
12948;DHT22;6539;49.476;8.484;2023-02-21T09:33:49;19.20;99.90
12948;DHT22;6539;49.476;8.484;2023-02-21T09:36:20;19.50;99.90
12948;DHT22;6539;49.476;8.484;2023-02-21T09:38:49;19.50;99.90
12948;DHT22;6539;49.476;8.484;2023-02-21T09:41:16;19.40;99.90
12948;DHT22;6539;49.476;8.484;2023-02-21T09:43:46;19.20;99.90
12948;DHT22;6539;49.476;8.484;2023-02-21T09:46:20;19.20;99.90
12948;DHT22;6539;49.476;8.484;2023-02-21T09:48:55;19.40;99.90
12948;DHT22;6539;49.476;8.484;2023-02-21T09:51:23;19.80;99.90
12948;DHT22;6539;49.476;8.484;2023-02-21T09:53:53;19.80;99.90
12948;DHT22;6539;49.476;8.484;2023-02-21T09:56:34;19.40;99.90
12948;DHT22;6539;49.476;8.484;2023-02-21T09:59:11;19.70;99.90
12948;DHT22;6539;49.476;8.484;2023-02-21T10:10:42;19.20;99.90
12948;DHT22;6539;49.476;8.484;2023-02-21T10:13:38;18.80;99.90
12948;DHT22;6539;49.476;8.484;2023-02-21T10:16:33;19.10;99.90
12948;DHT22;6539;49.476;8.484;2023-02-21T10:21:57;19.10;99.90
12948;DHT22;6539;49.476;8.484;2023-02-21T10:24:30;19.00;99.90
12948;DHT22;6539;49.476;8.484;2023-02-21T10:32:20;19.20;99.90
12948;DHT22;6539;49.476;8.484;2023-02-21T10:34:47;19.20;99.90
12948;DHT22;6539;49.476;8.484;2023-02-21T10:40:51;19.50;99.90
12948;DHT22;6539;49.476;8.484;2023-02-21T10:43:31;19.60;99.90
12948;DHT22;6539;49.476;8.484;2023-02-21T10:48:39;19.60;99.90
12948;DHT22;6539;49.476;8.484;2023-02-21T10:51:14;19.50;99.90
12948;DHT22;6539;49.476;8.484;2023-02-21T10:53:43;19.60;99.90
12948;DHT22;6539;49.476;8.484;2023-02-21T11:03:56;20.20;99.90
12948;DHT22;6539;49.476;8.484;2023-02-21T11:06:32;20.00;99.90
12948;DHT22;6539;49.476;8.484;2023-02-21T11:09:01;19.90;99.90
12948;DHT22;6539;49.476;8.484;2023-02-21T11:11:59;20.00;99.90
12948;DHT22;6539;49.476;8.484;2023-02-21T11:14:33;20.00;99.90
12948;DHT22;6539;49.476;8.484;2023-02-21T11:19:46;20.10;99.90
12948;DHT22;6539;49.476;8.484;2023-02-21T11:22:48;20.30;99.90
12948;DHT22;6539;49.476;8.484;2023-02-21T11:25:23;20.40;99.90
12948;DHT22;6539;49.476;8.484;2023-02-21T11:28:16;20.50;99.90
12948;DHT22;6539;49.476;8.484;2023-02-21T11:31:02;20.20;99.90
12948;DHT22;6539;49.476;8.484;2023-02-21T11:33:35;19.80;99.90
12948;DHT22;6539;49.476;8.484;2023-02-21T11:36:13;19.80;99.90
12948;DHT22;6539;49.476;8.484;2023-02-21T11:38:45;20.00;99.90
12948;DHT22;6539;49.476;8.484;2023-02-21T11:41:32;19.80;99.90
12948;DHT22;6539;49.476;8.484;2023-02-21T11:44:01;19.70;99.90
12948;DHT22;6539;49.476;8.484;2023-02-21T11:46:51;19.70;99.90
12948;DHT22;6539;49.476;8.484;2023-02-21T11:52:34;19.90;99.90
12948;DHT22;6539;49.476;8.484;2023-02-21T11:54:58;20.00;99.90
12948;DHT22;6539;49.476;8.484;2023-02-21T12:00:50;20.20;99.90
12948;DHT22;6539;49.476;8.484;2023-02-21T12:09:31;20.20;99.90
12948;DHT22;6539;49.476;8.484;2023-02-21T12:17:45;19.00;99.90
12948;DHT22;6539;49.476;8.484;2023-02-21T12:23:22;18.70;99.90
12948;DHT22;6539;49.476;8.484;2023-02-21T12:26:09;18.90;99.90
12948;DHT22;6539;49.476;8.484;2023-02-21T12:37:20;19.00;99.90
12948;DHT22;6539;49.476;8.484;2023-02-21T12:48:48;18.70;99.90
12948;DHT22;6539;49.476;8.484;2023-02-21T12:51:24;18.70;99.90
12948;DHT22;6539;49.476;8.484;2023-02-21T12:54:05;18.50;99.90
12948;DHT22;6539;49.476;8.484;2023-02-21T12:57:06;18.80;99.90
12948;DHT22;6539;49.476;8.484;2023-02-21T12:59:55;18.80;99.90
12948;DHT22;6539;49.476;8.484;2023-02-21T13:03:29;18.70;99.90
12948;DHT22;6539;49.476;8.484;2023-02-21T13:06:01;18.80;99.90
12948;DHT22;6539;49.476;8.484;2023-02-21T13:09:13;18.80;99.90
12948;DHT22;6539;49.476;8.484;2023-02-21T13:11:58;18.70;99.90
12948;DHT22;6539;49.476;8.484;2023-02-21T13:14:37;18.60;99.90
12948;DHT22;6539;49.476;8.484;2023-02-21T13:17:09;18.50;99.90
12948;DHT22;6539;49.476;8.484;2023-02-21T13:20:05;18.10;99.90
12948;DHT22;6539;49.476;8.484;2023-02-21T13:26:49;18.20;99.90
12948;DHT22;6539;49.476;8.484;2023-02-21T13:29:27;18.20;99.90
12948;DHT22;6539;49.476;8.484;2023-02-21T13:32:00;18.00;99.90
12948;DHT22;6539;49.476;8.484;2023-02-21T13:34:40;18.00;99.90
12948;DHT22;6539;49.476;8.484;2023-02-21T13:37:19;17.90;99.90
12948;DHT22;6539;49.476;8.484;2023-02-21T13:39:59;17.80;99.90
12948;DHT22;6539;49.476;8.484;2023-02-21T13:42:34;17.80;99.90
12948;DHT22;6539;49.476;8.484;2023-02-21T13:45:24;17.80;99.90
12948;DHT22;6539;49.476;8.484;2023-02-21T13:53:18;17.90;99.90
12948;DHT22;6539;49.476;8.484;2023-02-21T13:58:36;17.90;99.90
12948;DHT22;6539;49.476;8.484;2023-02-21T14:03:40;17.80;99.90
12948;DHT22;6539;49.476;8.484;2023-02-21T14:08:48;17.50;99.90
12948;DHT22;6539;49.476;8.484;2023-02-21T14:11:25;17.50;99.90
12948;DHT22;6539;49.476;8.484;2023-02-21T14:13:54;17.50;99.90
12948;DHT22;6539;49.476;8.484;2023-02-21T14:16:47;17.40;99.90
12948;DHT22;6539;49.476;8.484;2023-02-21T14:19:29;17.30;99.90
12948;DHT22;6539;49.476;8.484;2023-02-21T14:22:01;17.20;99.90
12948;DHT22;6539;49.476;8.484;2023-02-21T14:24:39;17.20;99.90
12948;DHT22;6539;49.476;8.484;2023-02-21T14:29:43;17.30;99.90
12948;DHT22;6539;49.476;8.484;2023-02-21T15:01:04;17.00;99.90
12948;DHT22;6539;49.476;8.484;2023-02-21T15:10:13;16.90;99.90
12948;DHT22;6539;49.476;8.484;2023-02-21T15:12:50;16.80;99.90
12948;DHT22;6539;49.476;8.484;2023-02-21T15:15:26;16.90;99.90
12948;DHT22;6539;49.476;8.484;2023-02-21T15:20:36;16.80;99.90
12948;DHT22;6539;49.476;8.484;2023-02-21T15:23:20;16.80;99.90
12948;DHT22;6539;49.476;8.484;2023-02-21T15:25:56;16.90;99.90
12948;DHT22;6539;49.476;8.484;2023-02-21T15:28:28;16.90;99.90
12948;DHT22;6539;49.476;8.484;2023-02-21T15:31:04;16.90;99.90
12948;DHT22;6539;49.476;8.484;2023-02-21T15:33:37;16.90;99.90
12948;DHT22;6539;49.476;8.484;2023-02-21T15:36:19;16.80;99.90
12948;DHT22;6539;49.476;8.484;2023-02-21T15:38:52;16.80;99.90
12948;DHT22;6539;49.476;8.484;2023-02-21T15:41:37;16.80;99.90
12948;DHT22;6539;49.476;8.484;2023-02-21T15:44:16;16.80;99.90
12948;DHT22;6539;49.476;8.484;2023-02-21T15:46:51;16.90;99.90
12948;DHT22;6539;49.476;8.484;2023-02-21T15:49:27;17.10;99.90
12948;DHT22;6539;49.476;8.484;2023-02-21T15:51:55;16.70;99.90
12948;DHT22;6539;49.476;8.484;2023-02-21T15:54:30;16.70;99.90
12948;DHT22;6539;49.476;8.484;2023-02-21T15:57:21;16.70;99.90
12948;DHT22;6539;49.476;8.484;2023-02-21T16:00:06;16.60;99.90
12948;DHT22;6539;49.476;8.484;2023-02-21T16:02:50;16.60;99.90
12948;DHT22;6539;49.476;8.484;2023-02-21T16:05:28;16.60;99.90
12948;DHT22;6539;49.476;8.484;2023-02-21T16:08:04;16.50;99.90
12948;DHT22;6539;49.476;8.484;2023-02-21T16:10:30;16.50;99.90
12948;DHT22;6539;49.476;8.484;2023-02-21T16:12:59;16.50;99.90
12948;DHT22;6539;49.476;8.484;2023-02-21T16:17:59;16.50;99.90
12948;DHT22;6539;49.476;8.484;2023-02-21T16:20:35;16.50;99.90
12948;DHT22;6539;49.476;8.484;2023-02-21T16:28:29;16.40;99.90
12948;DHT22;6539;49.476;8.484;2023-02-21T16:31:03;16.40;99.90
12948;DHT22;6539;49.476;8.484;2023-02-21T16:33:31;16.40;99.90
12948;DHT22;6539;49.476;8.484;2023-02-21T16:36:04;16.30;99.90
12948;DHT22;6539;49.476;8.484;2023-02-21T16:38:35;16.30;99.90
12948;DHT22;6539;49.476;8.484;2023-02-21T16:41:01;16.30;99.90
12948;DHT22;6539;49.476;8.484;2023-02-21T16:43:33;16.30;99.90
12948;DHT22;6539;49.476;8.484;2023-02-21T16:45:59;16.30;99.90
12948;DHT22;6539;49.476;8.484;2023-02-21T16:48:28;16.30;99.90
12948;DHT22;6539;49.476;8.484;2023-02-21T16:51:06;16.20;99.90
12948;DHT22;6539;49.476;8.484;2023-02-21T16:53:40;16.10;99.90
12948;DHT22;6539;49.476;8.484;2023-02-21T16:56:06;16.10;99.90
12948;DHT22;6539;49.476;8.484;2023-02-21T16:58:37;16.10;99.90
12948;DHT22;6539;49.476;8.484;2023-02-21T17:01:11;16.20;99.90
12948;DHT22;6539;49.476;8.484;2023-02-21T17:03:39;16.00;99.90
12948;DHT22;6539;49.476;8.484;2023-02-21T17:06:19;16.00;99.90
12948;DHT22;6539;49.476;8.484;2023-02-21T17:08:49;15.90;99.90
12948;DHT22;6539;49.476;8.484;2023-02-21T17:11:18;15.90;99.90
12948;DHT22;6539;49.476;8.484;2023-02-21T17:13:46;15.90;99.90
12948;DHT22;6539;49.476;8.484;2023-02-21T17:16:12;15.90;99.90
12948;DHT22;6539;49.476;8.484;2023-02-21T17:18:38;15.70;99.90
12948;DHT22;6539;49.476;8.484;2023-02-21T17:21:04;15.70;99.90
12948;DHT22;6539;49.476;8.484;2023-02-21T17:23:32;15.60;99.90
12948;DHT22;6539;49.476;8.484;2023-02-21T17:25:57;15.50;99.90
12948;DHT22;6539;49.476;8.484;2023-02-21T17:28:28;15.50;99.90
12948;DHT22;6539;49.476;8.484;2023-02-21T17:30:54;15.50;99.90
12948;DHT22;6539;49.476;8.484;2023-02-21T17:33:21;15.40;99.90
12948;DHT22;6539;49.476;8.484;2023-02-21T17:35:50;15.40;99.90
12948;DHT22;6539;49.476;8.484;2023-02-21T17:38:22;15.30;99.90
12948;DHT22;6539;49.476;8.484;2023-02-21T17:40:48;15.30;99.90
12948;DHT22;6539;49.476;8.484;2023-02-21T17:43:15;15.20;99.90
12948;DHT22;6539;49.476;8.484;2023-02-21T17:45:40;15.20;99.90
12948;DHT22;6539;49.476;8.484;2023-02-21T17:48:06;15.00;99.90
12948;DHT22;6539;49.476;8.484;2023-02-21T17:50:32;15.00;99.90
12948;DHT22;6539;49.476;8.484;2023-02-21T17:52:58;15.00;99.90
12948;DHT22;6539;49.476;8.484;2023-02-21T17:55:25;15.00;99.90
12948;DHT22;6539;49.476;8.484;2023-02-21T17:57:53;15.00;99.90
12948;DHT22;6539;49.476;8.484;2023-02-21T18:00:25;15.00;99.90
12948;DHT22;6539;49.476;8.484;2023-02-21T18:03:01;15.00;99.90
12948;DHT22;6539;49.476;8.484;2023-02-21T18:05:30;14.80;99.90
12948;DHT22;6539;49.476;8.484;2023-02-21T18:07:59;15.00;99.90
12948;DHT22;6539;49.476;8.484;2023-02-21T18:10:25;15.00;99.90
12948;DHT22;6539;49.476;8.484;2023-02-21T18:12:54;15.00;99.90
12948;DHT22;6539;49.476;8.484;2023-02-21T18:15:25;15.00;99.90
12948;DHT22;6539;49.476;8.484;2023-02-21T18:17:54;15.00;99.90
12948;DHT22;6539;49.476;8.484;2023-02-21T18:20:29;15.00;99.90
12948;DHT22;6539;49.476;8.484;2023-02-21T18:22:56;14.90;99.90
12948;DHT22;6539;49.476;8.484;2023-02-21T18:25:27;15.20;99.90
12948;DHT22;6539;49.476;8.484;2023-02-21T18:27:55;15.00;99.90
12948;DHT22;6539;49.476;8.484;2023-02-21T18:30:21;14.90;99.90
12948;DHT22;6539;49.476;8.484;2023-02-21T18:32:49;14.90;99.90
12948;DHT22;6539;49.476;8.484;2023-02-21T18:35:20;14.80;99.90
12948;DHT22;6539;49.476;8.484;2023-02-21T18:37:48;14.80;99.90
12948;DHT22;6539;49.476;8.484;2023-02-21T18:40:15;14.80;99.90
12948;DHT22;6539;49.476;8.484;2023-02-21T18:42:43;14.70;99.90
12948;DHT22;6539;49.476;8.484;2023-02-21T18:45:10;14.70;99.90
12948;DHT22;6539;49.476;8.484;2023-02-21T18:47:38;14.60;99.90
12948;DHT22;6539;49.476;8.484;2023-02-21T18:50:05;14.60;99.90
12948;DHT22;6539;49.476;8.484;2023-02-21T18:52:33;14.50;99.90
12948;DHT22;6539;49.476;8.484;2023-02-21T18:55:01;14.40;99.90
12948;DHT22;6539;49.476;8.484;2023-02-21T18:57:28;14.40;99.90
12948;DHT22;6539;49.476;8.484;2023-02-21T18:59:57;14.30;99.90
12948;DHT22;6539;49.476;8.484;2023-02-21T19:02:23;13.90;99.90
12948;DHT22;6539;49.476;8.484;2023-02-21T19:04:48;14.20;99.90
12948;DHT22;6539;49.476;8.484;2023-02-21T19:07:15;14.20;99.90
12948;DHT22;6539;49.476;8.484;2023-02-21T19:09:48;14.20;99.90
12948;DHT22;6539;49.476;8.484;2023-02-21T19:12:16;14.10;99.90
12948;DHT22;6539;49.476;8.484;2023-02-21T19:14:42;14.10;99.90
12948;DHT22;6539;49.476;8.484;2023-02-21T19:17:11;13.90;99.90
12948;DHT22;6539;49.476;8.484;2023-02-21T19:19:36;13.90;99.90
12948;DHT22;6539;49.476;8.484;2023-02-21T19:22:03;14.20;99.90
12948;DHT22;6539;49.476;8.484;2023-02-21T19:24:32;13.80;99.90